Wilsden, United Kingdom
Current Conditions -  °F | °C
As of 7:20 AM on Wednesday 22 Oct 2014 (Local Time) from EGNM Reporting Station
Few Clouds Few Clouds  
Wind Chill: 40°   Ceiling: Unl
Heat Index: 46°   Visibility: 6mi
Dew Point: 43°   Wind: 14mph
Humidity: 87%   Direction: 290°WNW
Pressure: 30.15"   Gusts: NA
Location:  53.82°N, 1.86°W
Report Text: EGNM 220620Z 29012KT 260V320 9999 FEW030 08/06 Q1021
Loading
Personal Weather Stations






























Interactive Weather Map
Tropical Storm Tracking
New forecast layout! Learn more

10-Day Weather Forecast

Advertisements
Track Severe Weather on mobile